sensor_id;sensor_type;location;lat;lon;timestamp;temperature;humidity
17968;DHT22;9109;48.050;11.696;2023-06-19T03:46:35;20.70;72.80
17968;DHT22;9109;48.050;11.696;2023-06-19T03:49:38;20.80;73.00
17968;DHT22;9109;48.050;11.696;2023-06-19T03:52:40;20.80;73.00
17968;DHT22;9109;48.050;11.696;2023-06-19T03:55:43;20.80;73.30
17968;DHT22;9109;48.050;11.696;2023-06-19T03:58:45;20.80;73.60
17968;DHT22;9109;48.050;11.696;2023-06-19T04:01:49;20.80;73.60
17968;DHT22;9109;48.050;11.696;2023-06-19T04:04:52;20.80;73.80
17968;DHT22;9109;48.050;11.696;2023-06-19T04:07:59;20.80;74.10
17968;DHT22;9109;48.050;11.696;2023-06-19T04:11:01;20.80;73.90
17968;DHT22;9109;48.050;11.696;2023-06-19T04:14:10;20.80;73.70
17968;DHT22;9109;48.050;11.696;2023-06-19T04:17:19;20.80;73.80
17968;DHT22;9109;48.050;11.696;2023-06-19T04:20:27;20.80;73.80
17968;DHT22;9109;48.050;11.696;2023-06-19T04:23:36;20.80;73.80
17968;DHT22;9109;48.050;11.696;2023-06-19T04:26:48;20.80;74.10
17968;DHT22;9109;48.050;11.696;2023-06-19T04:29:55;20.90;74.00
17968;DHT22;9109;48.050;11.696;2023-06-19T04:33:27;20.90;73.90
17968;DHT22;9109;48.050;11.696;2023-06-19T04:36:51;20.90;73.90
17968;DHT22;9109;48.050;11.696;2023-06-19T04:40:47;21.00;73.70
17968;DHT22;9109;48.050;11.696;2023-06-19T04:55:59;21.00;74.00
17968;DHT22;9109;48.050;11.696;2023-06-19T04:59:01;20.90;74.60
17968;DHT22;9109;48.050;11.696;2023-06-19T05:02:03;20.90;74.50
17968;DHT22;9109;48.050;11.696;2023-06-19T05:05:08;21.00;74.50
17968;DHT22;9109;48.050;11.696;2023-06-19T05:08:10;21.00;74.60
17968;DHT22;9109;48.050;11.696;2023-06-19T05:11:13;21.00;74.50
17968;DHT22;9109;48.050;11.696;2023-06-19T05:14:15;20.90;75.90
17968;DHT22;9109;48.050;11.696;2023-06-19T05:17:17;20.80;77.30
17968;DHT22;9109;48.050;11.696;2023-06-19T05:20:19;20.80;78.60
17968;DHT22;9109;48.050;11.696;2023-06-19T05:23:23;20.80;78.30
17968;DHT22;9109;48.050;11.696;2023-06-19T05:26:26;20.80;78.50
17968;DHT22;9109;48.050;11.696;2023-06-19T05:29:28;20.90;78.10
17968;DHT22;9109;48.050;11.696;2023-06-19T05:32:31;21.00;77.40
17968;DHT22;9109;48.050;11.696;2023-06-19T05:35:33;21.00;77.00
17968;DHT22;9109;48.050;11.696;2023-06-19T05:38:35;21.00;76.70
17968;DHT22;9109;48.050;11.696;2023-06-19T05:41:38;21.10;76.20
17968;DHT22;9109;48.050;11.696;2023-06-19T05:44:40;21.10;77.20
17968;DHT22;9109;48.050;11.696;2023-06-19T05:47:42;21.20;77.00
17968;DHT22;9109;48.050;11.696;2023-06-19T05:50:44;21.20;78.70
17968;DHT22;9109;48.050;11.696;2023-06-19T05:53:46;21.20;79.40
17968;DHT22;9109;48.050;11.696;2023-06-19T05:56:51;21.20;80.10
17968;DHT22;9109;48.050;11.696;2023-06-19T05:59:53;21.20;81.10
17968;DHT22;9109;48.050;11.696;2023-06-19T06:02:55;21.20;80.90
17968;DHT22;9109;48.050;11.696;2023-06-19T06:06:00;21.20;78.50
17968;DHT22;9109;48.050;11.696;2023-06-19T06:09:04;21.30;78.80
17968;DHT22;9109;48.050;11.696;2023-06-19T06:12:08;21.30;77.80
17968;DHT22;9109;48.050;11.696;2023-06-19T06:15:10;21.30;77.70
17968;DHT22;9109;48.050;11.696;2023-06-19T06:18:12;21.40;76.90
17968;DHT22;9109;48.050;11.696;2023-06-19T06:21:14;21.50;76.70
17968;DHT22;9109;48.050;11.696;2023-06-19T06:24:16;21.50;76.40
17968;DHT22;9109;48.050;11.696;2023-06-19T06:27:19;21.60;75.80
17968;DHT22;9109;48.050;11.696;2023-06-19T06:30:21;21.60;76.60
17968;DHT22;9109;48.050;11.696;2023-06-19T06:33:24;21.70;75.90
17968;DHT22;9109;48.050;11.696;2023-06-19T06:36:26;21.70;76.00
17968;DHT22;9109;48.050;11.696;2023-06-19T06:39:29;21.80;75.30
17968;DHT22;9109;48.050;11.696;2023-06-19T06:42:32;21.90;75.90
17968;DHT22;9109;48.050;11.696;2023-06-19T06:45:34;22.00;75.60
17968;DHT22;9109;48.050;11.696;2023-06-19T06:48:38;22.00;75.70
17968;DHT22;9109;48.050;11.696;2023-06-19T06:51:40;22.10;76.60
17968;DHT22;9109;48.050;11.696;2023-06-19T06:54:42;22.20;76.90
17968;DHT22;9109;48.050;11.696;2023-06-19T06:57:45;22.20;77.60
17968;DHT22;9109;48.050;11.696;2023-06-19T07:00:47;22.20;77.40
17968;DHT22;9109;48.050;11.696;2023-06-19T07:03:51;22.20;77.50
17968;DHT22;9109;48.050;11.696;2023-06-19T07:06:54;22.20;77.00
17968;DHT22;9109;48.050;11.696;2023-06-19T07:09:56;22.30;76.60
17968;DHT22;9109;48.050;11.696;2023-06-19T07:12:59;22.30;76.70
17968;DHT22;9109;48.050;11.696;2023-06-19T07:16:01;22.40;76.90
17968;DHT22;9109;48.050;11.696;2023-06-19T07:19:05;22.40;77.40
17968;DHT22;9109;48.050;11.696;2023-06-19T07:22:07;22.60;77.50
17968;DHT22;9109;48.050;11.696;2023-06-19T07:25:10;22.80;77.50
17968;DHT22;9109;48.050;11.696;2023-06-19T07:28:15;22.90;77.10
17968;DHT22;9109;48.050;11.696;2023-06-19T07:31:17;23.00;75.80
17968;DHT22;9109;48.050;11.696;2023-06-19T07:34:19;23.10;76.60
17968;DHT22;9109;48.050;11.696;2023-06-19T07:37:21;23.20;75.60
17968;DHT22;9109;48.050;11.696;2023-06-19T07:40:23;23.30;76.20
17968;DHT22;9109;48.050;11.696;2023-06-19T07:43:26;23.40;75.60
17968;DHT22;9109;48.050;11.696;2023-06-19T07:46:28;23.50;74.90
17968;DHT22;9109;48.050;11.696;2023-06-19T07:49:30;23.60;75.30
17968;DHT22;9109;48.050;11.696;2023-06-19T07:52:32;23.60;74.90
17968;DHT22;9109;48.050;11.696;2023-06-19T07:55:34;23.60;74.50
17968;DHT22;9109;48.050;11.696;2023-06-19T07:58:37;23.70;74.70
17968;DHT22;9109;48.050;11.696;2023-06-19T08:01:39;23.80;74.90
17968;DHT22;9109;48.050;11.696;2023-06-19T08:04:42;23.90;73.20
17968;DHT22;9109;48.050;11.696;2023-06-19T08:07:43;24.00;74.00
17968;DHT22;9109;48.050;11.696;2023-06-19T08:10:45;24.40;73.50
17968;DHT22;9109;48.050;11.696;2023-06-19T08:13:49;24.80;69.60
17968;DHT22;9109;48.050;11.696;2023-06-19T08:16:50;25.00;68.90
17968;DHT22;9109;48.050;11.696;2023-06-19T08:19:52;25.20;67.30
17968;DHT22;9109;48.050;11.696;2023-06-19T08:22:54;25.30;69.10
17968;DHT22;9109;48.050;11.696;2023-06-19T08:25:57;25.50;68.70
17968;DHT22;9109;48.050;11.696;2023-06-19T08:29:00;25.80;69.30
17968;DHT22;9109;48.050;11.696;2023-06-19T08:32:02;26.00;67.90
17968;DHT22;9109;48.050;11.696;2023-06-19T08:35:05;26.10;64.70
17968;DHT22;9109;48.050;11.696;2023-06-19T08:38:07;26.00;63.40
17968;DHT22;9109;48.050;11.696;2023-06-19T08:41:09;25.90;64.10
17968;DHT22;9109;48.050;11.696;2023-06-19T08:44:12;26.00;63.80
17968;DHT22;9109;48.050;11.696;2023-06-19T08:47:14;26.20;64.20
17968;DHT22;9109;48.050;11.696;2023-06-19T08:50:16;26.30;62.70
17968;DHT22;9109;48.050;11.696;2023-06-19T08:53:18;26.10;61.40
17968;DHT22;9109;48.050;11.696;2023-06-19T08:56:20;26.00;62.70
17968;DHT22;9109;48.050;11.696;2023-06-19T08:59:25;26.20;61.40
17968;DHT22;9109;48.050;11.696;2023-06-19T09:02:45;26.30;63.20
17968;DHT22;9109;48.050;11.696;2023-06-19T09:05:50;26.50;62.50
17968;DHT22;9109;48.050;11.696;2023-06-19T09:08:59;26.60;63.00
17968;DHT22;9109;48.050;11.696;2023-06-19T09:12:02;26.70;62.10
17968;DHT22;9109;48.050;11.696;2023-06-19T09:15:13;26.90;62.20
17968;DHT22;9109;48.050;11.696;2023-06-19T09:18:15;27.00;61.00
17968;DHT22;9109;48.050;11.696;2023-06-19T09:21:18;27.10;61.20
17968;DHT22;9109;48.050;11.696;2023-06-19T09:24:22;27.20;60.00
17968;DHT22;9109;48.050;11.696;2023-06-19T09:27:25;27.30;60.70
17968;DHT22;9109;48.050;11.696;2023-06-19T09:30:34;27.40;59.00
17968;DHT22;9109;48.050;11.696;2023-06-19T09:33:37;27.60;58.70
17968;DHT22;9109;48.050;11.696;2023-06-19T09:36:39;27.70;58.70
17968;DHT22;9109;48.050;11.696;2023-06-19T09:39:42;27.90;60.20
17968;DHT22;9109;48.050;11.696;2023-06-19T09:42:44;27.70;59.50
17968;DHT22;9109;48.050;11.696;2023-06-19T09:45:49;27.50;57.30
17968;DHT22;9109;48.050;11.696;2023-06-19T09:48:54;27.30;58.20
17968;DHT22;9109;48.050;11.696;2023-06-19T09:51:59;27.20;57.40
17968;DHT22;9109;48.050;11.696;2023-06-19T09:55:03;27.20;58.40
17968;DHT22;9109;48.050;11.696;2023-06-19T09:58:05;27.40;58.90
17968;DHT22;9109;48.050;11.696;2023-06-19T10:01:10;27.60;57.30
17968;DHT22;9109;48.050;11.696;2023-06-19T10:04:13;27.70;57.10
17968;DHT22;9109;48.050;11.696;2023-06-19T10:07:18;27.70;57.30
17968;DHT22;9109;48.050;11.696;2023-06-19T10:10:24;27.80;58.80
17968;DHT22;9109;48.050;11.696;2023-06-19T10:13:34;28.00;56.40
17968;DHT22;9109;48.050;11.696;2023-06-19T10:16:38;27.70;56.40
17968;DHT22;9109;48.050;11.696;2023-06-19T10:19:49;27.80;57.60
17968;DHT22;9109;48.050;11.696;2023-06-19T10:22:56;28.00;56.40
17968;DHT22;9109;48.050;11.696;2023-06-19T10:25:59;28.10;55.20
17968;DHT22;9109;48.050;11.696;2023-06-19T10:29:12;28.10;55.70
17968;DHT22;9109;48.050;11.696;2023-06-19T10:32:16;27.80;55.50
17968;DHT22;9109;48.050;11.696;2023-06-19T10:35:18;27.40;56.60
17968;DHT22;9109;48.050;11.696;2023-06-19T10:38:22;27.30;56.80
17968;DHT22;9109;48.050;11.696;2023-06-19T10:41:25;27.20;58.50
17968;DHT22;9109;48.050;11.696;2023-06-19T10:44:28;27.30;58.30
17968;DHT22;9109;48.050;11.696;2023-06-19T10:47:32;27.20;58.00
17968;DHT22;9109;48.050;11.696;2023-06-19T10:50:34;27.10;58.70
17968;DHT22;9109;48.050;11.696;2023-06-19T10:53:38;27.10;58.80
17968;DHT22;9109;48.050;11.696;2023-06-19T10:56:40;27.00;58.60
17968;DHT22;9109;48.050;11.696;2023-06-19T10:59:44;26.80;58.40
17968;DHT22;9109;48.050;11.696;2023-06-19T11:02:47;27.00;59.10
17968;DHT22;9109;48.050;11.696;2023-06-19T11:05:49;27.20;58.80
17968;DHT22;9109;48.050;11.696;2023-06-19T11:08:51;27.30;58.90
17968;DHT22;9109;48.050;11.696;2023-06-19T11:11:53;27.00;58.40
17968;DHT22;9109;48.050;11.696;2023-06-19T11:14:55;26.90;59.10
17968;DHT22;9109;48.050;11.696;2023-06-19T11:17:59;27.20;58.60
17968;DHT22;9109;48.050;11.696;2023-06-19T11:21:02;27.70;59.80
17968;DHT22;9109;48.050;11.696;2023-06-19T11:24:06;27.90;57.40
17968;DHT22;9109;48.050;11.696;2023-06-19T11:27:17;27.80;56.70
17968;DHT22;9109;48.050;11.696;2023-06-19T11:30:19;28.00;56.90
17968;DHT22;9109;48.050;11.696;2023-06-19T11:33:32;28.30;57.40
17968;DHT22;9109;48.050;11.696;2023-06-19T11:36:37;28.50;57.00
17968;DHT22;9109;48.050;11.696;2023-06-19T11:39:39;28.70;56.80
17968;DHT22;9109;48.050;11.696;2023-06-19T11:42:46;28.80;56.20
17968;DHT22;9109;48.050;11.696;2023-06-19T11:45:48;28.90;56.00
17968;DHT22;9109;48.050;11.696;2023-06-19T11:48:53;28.70;56.10
17968;DHT22;9109;48.050;11.696;2023-06-19T11:51:55;28.40;56.30
17968;DHT22;9109;48.050;11.696;2023-06-19T11:54:57;28.30;57.20
17968;DHT22;9109;48.050;11.696;2023-06-19T11:57:59;28.30;57.10
17968;DHT22;9109;48.050;11.696;2023-06-19T12:01:01;28.30;57.60
17968;DHT22;9109;48.050;11.696;2023-06-19T12:04:04;28.40;57.10
17968;DHT22;9109;48.050;11.696;2023-06-19T12:07:10;28.10;56.60
17968;DHT22;9109;48.050;11.696;2023-06-19T12:10:12;27.90;57.00
17968;DHT22;9109;48.050;11.696;2023-06-19T12:13:14;28.00;57.70
17968;DHT22;9109;48.050;11.696;2023-06-19T12:16:16;28.20;56.50
17968;DHT22;9109;48.050;11.696;2023-06-19T12:19:22;28.20;56.70
17968;DHT22;9109;48.050;11.696;2023-06-19T12:22:24;28.20;57.00
17968;DHT22;9109;48.050;11.696;2023-06-19T12:25:26;28.50;55.70
17968;DHT22;9109;48.050;11.696;2023-06-19T12:28:28;28.40;55.30
17968;DHT22;9109;48.050;11.696;2023-06-19T12:31:31;28.10;55.30
17968;DHT22;9109;48.050;11.696;2023-06-19T12:34:34;27.80;56.40
17968;DHT22;9109;48.050;11.696;2023-06-19T12:37:39;27.60;57.40
17968;DHT22;9109;48.050;11.696;2023-06-19T12:40:41;27.70;57.90
17968;DHT22;9109;48.050;11.696;2023-06-19T12:43:43;28.00;57.60
17968;DHT22;9109;48.050;11.696;2023-06-19T12:46:45;28.50;56.50
17968;DHT22;9109;48.050;11.696;2023-06-19T12:49:48;28.90;55.50
17968;DHT22;9109;48.050;11.696;2023-06-19T12:52:50;29.30;56.20
17968;DHT22;9109;48.050;11.696;2023-06-19T12:55:52;29.40;54.60
17968;DHT22;9109;48.050;11.696;2023-06-19T12:58:54;29.40;54.20
17968;DHT22;9109;48.050;11.696;2023-06-19T13:01:56;29.60;54.10
17968;DHT22;9109;48.050;11.696;2023-06-19T13:05:00;29.40;53.80
17968;DHT22;9109;48.050;11.696;2023-06-19T13:08:02;29.40;53.70
17968;DHT22;9109;48.050;11.696;2023-06-19T13:11:04;29.40;53.30
17968;DHT22;9109;48.050;11.696;2023-06-19T13:14:06;29.40;53.40
17968;DHT22;9109;48.050;11.696;2023-06-19T13:17:08;29.50;53.50
17968;DHT22;9109;48.050;11.696;2023-06-19T13:20:11;29.40;53.10
17968;DHT22;9109;48.050;11.696;2023-06-19T13:23:14;29.40;53.90
17968;DHT22;9109;48.050;11.696;2023-06-19T13:26:16;29.50;53.70
17968;DHT22;9109;48.050;11.696;2023-06-19T13:29:18;29.70;53.20
17968;DHT22;9109;48.050;11.696;2023-06-19T13:32:20;29.60;53.00
17968;DHT22;9109;48.050;11.696;2023-06-19T13:35:23;29.80;52.50
17968;DHT22;9109;48.050;11.696;2023-06-19T13:38:25;29.80;52.70
17968;DHT22;9109;48.050;11.696;2023-06-19T13:41:27;29.70;52.60
17968;DHT22;9109;48.050;11.696;2023-06-19T13:44:33;29.80;52.70
17968;DHT22;9109;48.050;11.696;2023-06-19T13:47:36;30.30;52.90
17968;DHT22;9109;48.050;11.696;2023-06-19T13:50:39;30.60;53.20
17968;DHT22;9109;48.050;11.696;2023-06-19T13:53:41;30.70;51.90
17968;DHT22;9109;48.050;11.696;2023-06-19T13:56:44;30.90;52.60
17968;DHT22;9109;48.050;11.696;2023-06-19T13:59:45;31.10;52.80
17968;DHT22;9109;48.050;11.696;2023-06-19T14:02:49;31.00;50.30
17968;DHT22;9109;48.050;11.696;2023-06-19T14:05:52;30.90;50.80
17968;DHT22;9109;48.050;11.696;2023-06-19T14:08:54;30.50;51.00
17968;DHT22;9109;48.050;11.696;2023-06-19T14:11:56;30.30;50.50
17968;DHT22;9109;48.050;11.696;2023-06-19T14:14:59;30.20;50.90
17968;DHT22;9109;48.050;11.696;2023-06-19T14:18:01;30.40;51.70
17968;DHT22;9109;48.050;11.696;2023-06-19T14:21:04;30.30;50.60
17968;DHT22;9109;48.050;11.696;2023-06-19T14:24:06;30.00;50.90
17968;DHT22;9109;48.050;11.696;2023-06-19T14:27:08;30.10;53.20
17968;DHT22;9109;48.050;11.696;2023-06-19T14:30:10;30.30;51.60
17968;DHT22;9109;48.050;11.696;2023-06-19T14:33:12;30.00;51.30
17968;DHT22;9109;48.050;11.696;2023-06-19T14:36:17;29.70;52.00
17968;DHT22;9109;48.050;11.696;2023-06-19T14:39:19;29.60;52.20
17968;DHT22;9109;48.050;11.696;2023-06-19T14:42:21;30.00;51.60
17968;DHT22;9109;48.050;11.696;2023-06-19T14:45:23;30.10;52.30
17968;DHT22;9109;48.050;11.696;2023-06-19T14:48:25;30.40;51.40
17968;DHT22;9109;48.050;11.696;2023-06-19T14:51:32;30.20;51.10
17968;DHT22;9109;48.050;11.696;2023-06-19T14:54:34;30.40;52.00
17968;DHT22;9109;48.050;11.696;2023-06-19T14:57:36;30.60;51.70
17968;DHT22;9109;48.050;11.696;2023-06-19T15:00:38;30.60;50.80
17968;DHT22;9109;48.050;11.696;2023-06-19T15:03:41;30.60;50.80
17968;DHT22;9109;48.050;11.696;2023-06-19T15:06:45;30.70;49.90
17968;DHT22;9109;48.050;11.696;2023-06-19T15:09:47;30.50;50.50
17968;DHT22;9109;48.050;11.696;2023-06-19T15:12:48;30.40;50.20
17968;DHT22;9109;48.050;11.696;2023-06-19T15:15:50;30.30;51.10
17968;DHT22;9109;48.050;11.696;2023-06-19T15:18:53;30.40;52.00
17968;DHT22;9109;48.050;11.696;2023-06-19T15:21:56;30.60;51.30
17968;DHT22;9109;48.050;11.696;2023-06-19T15:24:58;30.70;51.00
17968;DHT22;9109;48.050;11.696;2023-06-19T15:28:00;30.60;50.10
17968;DHT22;9109;48.050;11.696;2023-06-19T15:31:02;30.60;50.60
17968;DHT22;9109;48.050;11.696;2023-06-19T15:34:04;30.60;50.90
17968;DHT22;9109;48.050;11.696;2023-06-19T15:37:08;30.60;50.80
17968;DHT22;9109;48.050;11.696;2023-06-19T15:40:10;30.50;50.50
17968;DHT22;9109;48.050;11.696;2023-06-19T15:43:13;30.30;50.80
17968;DHT22;9109;48.050;11.696;2023-06-19T15:46:15;30.10;51.30
17968;DHT22;9109;48.050;11.696;2023-06-19T15:49:17;30.30;52.60
17968;DHT22;9109;48.050;11.696;2023-06-19T15:52:20;30.50;52.20
17968;DHT22;9109;48.050;11.696;2023-06-19T15:55:24;30.70;51.50
17968;DHT22;9109;48.050;11.696;2023-06-19T15:58:27;30.70;51.70
17968;DHT22;9109;48.050;11.696;2023-06-19T16:01:29;30.50;52.80
17968;DHT22;9109;48.050;11.696;2023-06-19T16:04:31;30.20;52.50
17968;DHT22;9109;48.050;11.696;2023-06-19T16:07:34;30.10;54.30
17968;DHT22;9109;48.050;11.696;2023-06-19T16:10:36;29.90;55.20
17968;DHT22;9109;48.050;11.696;2023-06-19T16:13:38;29.80;55.20
17968;DHT22;9109;48.050;11.696;2023-06-19T16:16:40;29.70;54.50
17968;DHT22;9109;48.050;11.696;2023-06-19T16:19:42;29.70;56.00
17968;DHT22;9109;48.050;11.696;2023-06-19T16:22:45;29.60;54.90
17968;DHT22;9109;48.050;11.696;2023-06-19T16:25:47;29.40;56.10
17968;DHT22;9109;48.050;11.696;2023-06-19T16:28:49;29.30;56.40
17968;DHT22;9109;48.050;11.696;2023-06-19T16:31:51;29.40;56.60
17968;DHT22;9109;48.050;11.696;2023-06-19T16:34:53;29.40;55.20
17968;DHT22;9109;48.050;11.696;2023-06-19T16:37:56;29.40;54.50
17968;DHT22;9109;48.050;11.696;2023-06-19T16:40:58;29.40;55.00
17968;DHT22;9109;48.050;11.696;2023-06-19T16:44:00;29.30;54.50
17968;DHT22;9109;48.050;11.696;2023-06-19T16:47:02;29.20;55.30
17968;DHT22;9109;48.050;11.696;2023-06-19T16:50:06;29.20;54.80
17968;DHT22;9109;48.050;11.696;2023-06-19T16:53:09;29.10;53.90
17968;DHT22;9109;48.050;11.696;2023-06-19T16:56:11;29.10;54.20
17968;DHT22;9109;48.050;11.696;2023-06-19T16:59:13;28.90;55.80
17968;DHT22;9109;48.050;11.696;2023-06-19T17:02:15;28.90;56.20
17968;DHT22;9109;48.050;11.696;2023-06-19T17:05:16;28.90;55.30
17968;DHT22;9109;48.050;11.696;2023-06-19T17:08:20;29.00;55.50
17968;DHT22;9109;48.050;11.696;2023-06-19T17:11:22;29.00;55.10
17968;DHT22;9109;48.050;11.696;2023-06-19T17:14:27;29.00;55.10
17968;DHT22;9109;48.050;11.696;2023-06-19T17:17:28;29.00;55.10
17968;DHT22;9109;48.050;11.696;2023-06-19T17:20:30;28.90;55.10
17968;DHT22;9109;48.050;11.696;2023-06-19T17:23:34;28.80;54.70
17968;DHT22;9109;48.050;11.696;2023-06-19T17:26:36;28.70;54.70
17968;DHT22;9109;48.050;11.696;2023-06-19T17:29:39;28.70;55.50
17968;DHT22;9109;48.050;11.696;2023-06-19T17:32:41;28.70;54.30
17968;DHT22;9109;48.050;11.696;2023-06-19T17:35:44;28.60;55.60
17968;DHT22;9109;48.050;11.696;2023-06-19T17:38:48;28.40;55.50
17968;DHT22;9109;48.050;11.696;2023-06-19T17:41:53;28.50;55.20
17968;DHT22;9109;48.050;11.696;2023-06-19T17:44:54;28.50;55.00
17968;DHT22;9109;48.050;11.696;2023-06-19T17:47:56;28.50;55.40
17968;DHT22;9109;48.050;11.696;2023-06-19T17:50:58;28.50;55.20
17968;DHT22;9109;48.050;11.696;2023-06-19T17:54:02;28.40;56.10
17968;DHT22;9109;48.050;11.696;2023-06-19T17:57:04;28.30;55.80
17968;DHT22;9109;48.050;11.696;2023-06-19T18:00:07;28.20;56.50
17968;DHT22;9109;48.050;11.696;2023-06-19T18:03:09;28.20;55.40
17968;DHT22;9109;48.050;11.696;2023-06-19T18:06:11;28.20;55.60
17968;DHT22;9109;48.050;11.696;2023-06-19T18:09:15;28.00;56.60
17968;DHT22;9109;48.050;11.696;2023-06-19T18:12:17;27.90;57.10
17968;DHT22;9109;48.050;11.696;2023-06-19T18:15:19;27.80;57.20
17968;DHT22;9109;48.050;11.696;2023-06-19T18:18:20;27.70;57.70
17968;DHT22;9109;48.050;11.696;2023-06-19T18:21:22;27.60;57.80
17968;DHT22;9109;48.050;11.696;2023-06-19T18:24:26;27.50;58.10
17968;DHT22;9109;48.050;11.696;2023-06-19T18:27:28;27.40;58.40
17968;DHT22;9109;48.050;11.696;2023-06-19T18:30:30;27.30;58.60
17968;DHT22;9109;48.050;11.696;2023-06-19T18:33:31;27.20;59.40
17968;DHT22;9109;48.050;11.696;2023-06-19T18:36:33;27.10;59.20
17968;DHT22;9109;48.050;11.696;2023-06-19T18:39:37;27.10;59.10
17968;DHT22;9109;48.050;11.696;2023-06-19T18:42:38;27.00;59.10
17968;DHT22;9109;48.050;11.696;2023-06-19T18:45:41;27.00;59.20
17968;DHT22;9109;48.050;11.696;2023-06-19T18:48:43;26.90;59.60
17968;DHT22;9109;48.050;11.696;2023-06-19T18:51:48;26.80;59.60
17968;DHT22;9109;48.050;11.696;2023-06-19T18:54:51;26.80;60.00
17968;DHT22;9109;48.050;11.696;2023-06-19T18:57:53;26.80;59.60
17968;DHT22;9109;48.050;11.696;2023-06-19T19:00:58;26.70;60.60
17968;DHT22;9109;48.050;11.696;2023-06-19T19:04:00;26.50;60.90
17968;DHT22;9109;48.050;11.696;2023-06-19T19:07:02;26.40;61.60
17968;DHT22;9109;48.050;11.696;2023-06-19T19:10:08;26.40;61.80
17968;DHT22;9109;48.050;11.696;2023-06-19T19:13:10;26.40;61.70
17968;DHT22;9109;48.050;11.696;2023-06-19T19:16:13;26.40;62.20
17968;DHT22;9109;48.050;11.696;2023-06-19T19:19:15;26.30;62.60
17968;DHT22;9109;48.050;11.696;2023-06-19T19:22:17;26.20;63.00
17968;DHT22;9109;48.050;11.696;2023-06-19T19:25:20;26.10;63.60
17968;DHT22;9109;48.050;11.696;2023-06-19T19:28:22;26.00;63.90
17968;DHT22;9109;48.050;11.696;2023-06-19T19:34:37;25.90;64.20
17968;DHT22;9109;48.050;11.696;2023-06-19T19:37:39;25.80;64.50
17968;DHT22;9109;48.050;11.696;2023-06-19T19:40:44;25.80;65.00
17968;DHT22;9109;48.050;11.696;2023-06-19T19:43:48;25.80;64.30
17968;DHT22;9109;48.050;11.696;2023-06-19T19:46:50;25.70;64.80
17968;DHT22;9109;48.050;11.696;2023-06-19T19:49:54;25.60;65.10
17968;DHT22;9109;48.050;11.696;2023-06-19T19:53:01;25.50;65.70
17968;DHT22;9109;48.050;11.696;2023-06-19T19:56:05;25.50;66.60
17968;DHT22;9109;48.050;11.696;2023-06-19T19:59:07;25.40;66.70
17968;DHT22;9109;48.050;11.696;2023-06-19T20:02:16;25.30;67.50
17968;DHT22;9109;48.050;11.696;2023-06-19T20:05:20;25.30;67.40
17968;DHT22;9109;48.050;11.696;2023-06-19T20:08:26;25.20;67.40
17968;DHT22;9109;48.050;11.696;2023-06-19T20:11:30;25.20;67.40
17968;DHT22;9109;48.050;11.696;2023-06-19T20:14:36;25.20;67.60
17968;DHT22;9109;48.050;11.696;2023-06-19T20:17:39;25.20;67.50
17968;DHT22;9109;48.050;11.696;2023-06-19T20:20:43;25.20;67.90
17968;DHT22;9109;48.050;11.696;2023-06-19T20:23:45;25.30;67.20
17968;DHT22;9109;48.050;11.696;2023-06-19T20:26:49;25.30;67.70
17968;DHT22;9109;48.050;11.696;2023-06-19T20:29:51;25.30;67.30
17968;DHT22;9109;48.050;11.696;2023-06-19T20:32:53;25.30;67.50
17968;DHT22;9109;48.050;11.696;2023-06-19T20:35:55;25.40;67.30
17968;DHT22;9109;48.050;11.696;2023-06-19T20:39:03;25.40;66.90
17968;DHT22;9109;48.050;11.696;2023-06-19T20:42:10;25.50;66.90
17968;DHT22;9109;48.050;11.696;2023-06-19T20:45:16;25.50;66.90
17968;DHT22;9109;48.050;11.696;2023-06-19T20:48:22;25.50;66.90
17968;DHT22;9109;48.050;11.696;2023-06-19T20:51:25;25.50;67.30
17968;DHT22;9109;48.050;11.696;2023-06-19T20:54:28;25.40;67.90
17968;DHT22;9109;48.050;11.696;2023-06-19T20:57:31;25.40;68.50
17968;DHT22;9109;48.050;11.696;2023-06-19T21:00:39;25.30;68.30
17968;DHT22;9109;48.050;11.696;2023-06-19T21:03:45;25.20;69.30
17968;DHT22;9109;48.050;11.696;2023-06-19T21:06:50;25.00;70.00
17968;DHT22;9109;48.050;11.696;2023-06-19T21:09:53;25.10;69.60
17968;DHT22;9109;48.050;11.696;2023-06-19T21:12:57;24.90;70.00
17968;DHT22;9109;48.050;11.696;2023-06-19T21:15:59;24.70;70.30
17968;DHT22;9109;48.050;11.696;2023-06-19T21:19:00;24.60;70.80
17968;DHT22;9109;48.050;11.696;2023-06-19T21:22:03;24.60;70.70
17968;DHT22;9109;48.050;11.696;2023-06-19T21:25:06;24.50;71.10
17968;DHT22;9109;48.050;11.696;2023-06-19T21:28:12;24.50;71.60
17968;DHT22;9109;48.050;11.696;2023-06-19T21:31:14;24.40;71.30
17968;DHT22;9109;48.050;11.696;2023-06-19T21:34:16;24.40;71.40
17968;DHT22;9109;48.050;11.696;2023-06-19T21:37:18;24.40;72.40
17968;DHT22;9109;48.050;11.696;2023-06-19T21:40:20;24.50;72.50
17968;DHT22;9109;48.050;11.696;2023-06-19T21:43:29;24.40;72.50
17968;DHT22;9109;48.050;11.696;2023-06-19T21:46:31;24.30;72.60
17968;DHT22;9109;48.050;11.696;2023-06-19T21:49:33;24.20;72.40
17968;DHT22;9109;48.050;11.696;2023-06-19T21:52:35;24.10;73.00
17968;DHT22;9109;48.050;11.696;2023-06-19T21:55:42;24.10;73.50
17968;DHT22;9109;48.050;11.696;2023-06-19T21:58:46;24.10;74.60
17968;DHT22;9109;48.050;11.696;2023-06-19T22:01:48;23.90;76.00
17968;DHT22;9109;48.050;11.696;2023-06-19T22:04:50;23.80;77.90
17968;DHT22;9109;48.050;11.696;2023-06-19T22:07:52;23.60;79.90
17968;DHT22;9109;48.050;11.696;2023-06-19T22:10:56;23.30;81.60
17968;DHT22;9109;48.050;11.696;2023-06-19T22:14:00;23.20;82.70
17968;DHT22;9109;48.050;11.696;2023-06-19T22:17:02;23.10;83.50
17968;DHT22;9109;48.050;11.696;2023-06-19T22:20:06;23.00;85.20
17968;DHT22;9109;48.050;11.696;2023-06-19T22:23:08;22.80;86.80
17968;DHT22;9109;48.050;11.696;2023-06-19T22:26:10;22.70;90.50
17968;DHT22;9109;48.050;11.696;2023-06-19T22:29:14;22.60;92.40
17968;DHT22;9109;48.050;11.696;2023-06-19T22:32:16;22.50;93.80
17968;DHT22;9109;48.050;11.696;2023-06-19T22:35:19;22.40;97.30
17968;DHT22;9109;48.050;11.696;2023-06-19T22:38:21;22.30;99.90
17968;DHT22;9109;48.050;11.696;2023-06-19T22:41:23;22.10;99.90
17968;DHT22;9109;48.050;11.696;2023-06-19T22:44:26;22.10;99.90
17968;DHT22;9109;48.050;11.696;2023-06-19T22:47:28;22.10;99.90
17968;DHT22;9109;48.050;11.696;2023-06-19T22:50:30;22.10;99.90
17968;DHT22;9109;48.050;11.696;2023-06-19T22:53:32;22.20;99.90
17968;DHT22;9109;48.050;11.696;2023-06-19T22:56:34;22.20;99.90
17968;DHT22;9109;48.050;11.696;2023-06-19T22:59:37;22.00;99.90
